sensor_id;sensor_type;location;lat;lon;timestamp;pressure;altitude;pressure_sealevel;temperature;humidity
76762;BME280;65705;51.032;13.790;2022-12-20T00:00:17;101013.31;;;1.32;76.81
76762;BME280;65705;51.032;13.790;2022-12-20T00:02:43;101009.72;;;1.35;76.83
76762;BME280;65705;51.032;13.790;2022-12-20T00:05:09;101005.44;;;1.51;76.04
76762;BME280;65705;51.032;13.790;2022-12-20T00:07:34;101001.56;;;1.42;76.24
76762;BME280;65705;51.032;13.790;2022-12-20T00:10:00;101005.78;;;1.45;76.58
76762;BME280;65705;51.032;13.790;2022-12-20T00:12:26;100995.94;;;1.51;76.35
76762;BME280;65705;51.032;13.790;2022-12-20T00:14:52;100975.63;;;1.44;76.00
76762;BME280;65705;51.032;13.790;2022-12-20T00:17:18;100978.16;;;1.45;76.20
76762;BME280;65705;51.032;13.790;2022-12-20T00:19:44;100972.38;;;1.40;76.29
76762;BME280;65705;51.032;13.790;2022-12-20T00:22:09;100962.28;;;1.36;76.89
76762;BME280;65705;51.032;13.790;2022-12-20T00:24:35;100955.28;;;1.38;76.63
76762;BME280;65705;51.032;13.790;2022-12-20T00:27:01;100957.69;;;1.41;76.44
76762;BME280;65705;51.032;13.790;2022-12-20T00:29:27;100943.13;;;1.40;76.35
76762;BME280;65705;51.032;13.790;2022-12-20T00:31:53;100941.59;;;1.36;76.78
76762;BME280;65705;51.032;13.790;2022-12-20T00:34:18;100935.84;;;1.31;76.66
76762;BME280;65705;51.032;13.790;2022-12-20T00:36:44;100940.84;;;1.34;76.96
76762;BME280;65705;51.032;13.790;2022-12-20T00:39:10;100941.69;;;1.34;76.67
76762;BME280;65705;51.032;13.790;2022-12-20T00:41:36;100967.75;;;1.30;76.68
76762;BME280;65705;51.032;13.790;2022-12-20T00:44:02;100979.94;;;1.28;76.95
76762;BME280;65705;51.032;13.790;2022-12-20T00:46:29;100961.91;;;1.26;77.04
76762;BME280;65705;51.032;13.790;2022-12-20T00:48:57;100960.94;;;1.29;77.17
76762;BME280;65705;51.032;13.790;2022-12-20T00:51:26;100971.28;;;1.29;77.07
76762;BME280;65705;51.032;13.790;2022-12-20T00:53:52;100979.16;;;1.26;77.07
76762;BME280;65705;51.032;13.790;2022-12-20T00:56:18;100972.25;;;1.26;77.02
76762;BME280;65705;51.032;13.790;2022-12-20T00:58:44;100973.09;;;1.27;76.86
76762;BME280;65705;51.032;13.790;2022-12-20T01:01:22;100961.69;;;1.31;77.31
76762;BME280;65705;51.032;13.790;2022-12-20T01:03:49;100946.78;;;1.36;76.74
76762;BME280;65705;51.032;13.790;2022-12-20T01:06:16;100938.34;;;1.48;76.52
76762;BME280;65705;51.032;13.790;2022-12-20T01:08:41;100939.38;;;1.45;76.76
76762;BME280;65705;51.032;13.790;2022-12-20T01:11:18;100936.84;;;1.44;76.90
76762;BME280;65705;51.032;13.790;2022-12-20T01:13:45;100937.13;;;1.55;76.82
76762;BME280;65705;51.032;13.790;2022-12-20T01:16:13;100931.78;;;1.58;76.22
76762;BME280;65705;51.032;13.790;2022-12-20T01:18:39;100931.72;;;1.59;76.30
76762;BME280;65705;51.032;13.790;2022-12-20T01:21:08;100930.13;;;1.57;76.69
76762;BME280;65705;51.032;13.790;2022-12-20T01:23:35;100921.19;;;1.62;76.75
76762;BME280;65705;51.032;13.790;2022-12-20T01:26:04;100928.09;;;1.62;76.66
76762;BME280;65705;51.032;13.790;2022-12-20T01:28:31;100909.91;;;1.63;76.85
76762;BME280;65705;51.032;13.790;2022-12-20T01:30:57;100925.97;;;1.70;76.41
76762;BME280;65705;51.032;13.790;2022-12-20T01:33:22;100929.53;;;1.67;76.52
76762;BME280;65705;51.032;13.790;2022-12-20T01:35:59;100933.28;;;1.62;76.57
76762;BME280;65705;51.032;13.790;2022-12-20T01:38:25;100928.09;;;1.62;76.56
76762;BME280;65705;51.032;13.790;2022-12-20T01:40:52;100938.31;;;1.65;76.90
76762;BME280;65705;51.032;13.790;2022-12-20T01:43:18;100944.06;;;1.70;76.55
76762;BME280;65705;51.032;13.790;2022-12-20T01:45:44;100943.31;;;1.68;76.20
76762;BME280;65705;51.032;13.790;2022-12-20T01:48:17;100936.44;;;1.67;76.45
76762;BME280;65705;51.032;13.790;2022-12-20T01:50:46;100936.13;;;1.73;76.28
76762;BME280;65705;51.032;13.790;2022-12-20T01:53:14;100935.47;;;1.69;76.29
76762;BME280;65705;51.032;13.790;2022-12-20T01:55:41;100932.88;;;1.69;76.52
76762;BME280;65705;51.032;13.790;2022-12-20T01:58:09;100929.31;;;1.72;76.71
76762;BME280;65705;51.032;13.790;2022-12-20T02:00:37;100925.97;;;1.70;76.55
76762;BME280;65705;51.032;13.790;2022-12-20T02:03:05;100914.53;;;1.74;76.36
76762;BME280;65705;51.032;13.790;2022-12-20T02:05:38;100907.34;;;1.79;76.27
76762;BME280;65705;51.032;13.790;2022-12-20T02:08:05;100915.13;;;1.79;76.31
76762;BME280;65705;51.032;13.790;2022-12-20T02:13:16;100916.75;;;1.80;76.02
76762;BME280;65705;51.032;13.790;2022-12-20T02:15:55;100920.28;;;1.79;76.33
76762;BME280;65705;51.032;13.790;2022-12-20T02:18:42;100917.44;;;1.83;76.37
76762;BME280;65705;51.032;13.790;2022-12-20T02:21:16;100911.59;;;1.80;76.15
76762;BME280;65705;51.032;13.790;2022-12-20T02:26:49;100910.25;;;1.88;76.13
76762;BME280;65705;51.032;13.790;2022-12-20T02:34:31;100920.59;;;1.88;75.67
76762;BME280;65705;51.032;13.790;2022-12-20T02:36:57;100913.44;;;1.93;75.65
76762;BME280;65705;51.032;13.790;2022-12-20T02:39:27;100923.63;;;1.96;75.44
76762;BME280;65705;51.032;13.790;2022-12-20T02:41:58;100924.94;;;2.03;75.20
76762;BME280;65705;51.032;13.790;2022-12-20T02:44:27;100938.16;;;1.99;75.20
76762;BME280;65705;51.032;13.790;2022-12-20T02:47:20;100934.38;;;1.89;75.39
76762;BME280;65705;51.032;13.790;2022-12-20T02:49:48;100923.28;;;1.87;75.70
76762;BME280;65705;51.032;13.790;2022-12-20T02:52:15;100930.91;;;1.90;75.51
76762;BME280;65705;51.032;13.790;2022-12-20T02:54:44;100906.84;;;1.88;75.57
76762;BME280;65705;51.032;13.790;2022-12-20T02:59:59;100915.19;;;1.93;75.71
76762;BME280;65705;51.032;13.790;2022-12-20T03:02:30;100899.16;;;1.86;75.86
76762;BME280;65705;51.032;13.790;2022-12-20T03:05:22;100909.25;;;1.91;75.88
76762;BME280;65705;51.032;13.790;2022-12-20T03:07:49;100916.75;;;1.95;75.47
76762;BME280;65705;51.032;13.790;2022-12-20T03:10:18;100911.56;;;1.95;75.77
76762;BME280;65705;51.032;13.790;2022-12-20T03:12:44;100890.81;;;1.97;75.74
76762;BME280;65705;51.032;13.790;2022-12-20T03:15:10;100895.31;;;1.93;75.62
76762;BME280;65705;51.032;13.790;2022-12-20T03:17:36;100899.91;;;1.88;76.30
76762;BME280;65705;51.032;13.790;2022-12-20T03:20:03;100889.69;;;2.01;75.51
76762;BME280;65705;51.032;13.790;2022-12-20T03:22:31;100880.50;;;1.95;75.84
76762;BME280;65705;51.032;13.790;2022-12-20T03:24:58;100882.19;;;1.96;76.02
76762;BME280;65705;51.032;13.790;2022-12-20T03:27:25;100890.72;;;1.98;75.75
76762;BME280;65705;51.032;13.790;2022-12-20T03:29:53;100889.78;;;1.99;75.61
76762;BME280;65705;51.032;13.790;2022-12-20T03:32:19;100891.94;;;2.07;75.32
76762;BME280;65705;51.032;13.790;2022-12-20T03:34:45;100891.03;;;2.08;75.23
76762;BME280;65705;51.032;13.790;2022-12-20T03:37:12;100885.19;;;2.04;75.21
76762;BME280;65705;51.032;13.790;2022-12-20T03:39:38;100874.00;;;2.04;75.63
76762;BME280;65705;51.032;13.790;2022-12-20T03:42:06;100880.94;;;2.03;75.57
76762;BME280;65705;51.032;13.790;2022-12-20T03:44:31;100886.44;;;2.13;75.14
76762;BME280;65705;51.032;13.790;2022-12-20T03:46:57;100882.81;;;2.15;75.05
76762;BME280;65705;51.032;13.790;2022-12-20T03:49:23;100892.19;;;2.18;74.75
76762;BME280;65705;51.032;13.790;2022-12-20T03:51:50;100887.34;;;2.12;75.09
76762;BME280;65705;51.032;13.790;2022-12-20T03:54:16;100884.50;;;2.17;74.88
76762;BME280;65705;51.032;13.790;2022-12-20T03:57:00;100888.09;;;2.14;74.91
76762;BME280;65705;51.032;13.790;2022-12-20T03:59:27;100891.16;;;2.21;74.98
76762;BME280;65705;51.032;13.790;2022-12-20T04:01:52;100883.16;;;2.25;74.90
76762;BME280;65705;51.032;13.790;2022-12-20T04:04:18;100888.84;;;2.16;74.99
76762;BME280;65705;51.032;13.790;2022-12-20T04:06:44;100887.25;;;2.13;75.01
76762;BME280;65705;51.032;13.790;2022-12-20T04:09:10;100878.59;;;2.14;75.00
76762;BME280;65705;51.032;13.790;2022-12-20T04:11:41;100873.41;;;2.14;74.97
76762;BME280;65705;51.032;13.790;2022-12-20T04:14:11;100875.34;;;2.11;75.11
76762;BME280;65705;51.032;13.790;2022-12-20T04:16:37;100882.16;;;2.12;75.03
76762;BME280;65705;51.032;13.790;2022-12-20T04:19:03;100882.06;;;2.13;75.13
76762;BME280;65705;51.032;13.790;2022-12-20T04:21:34;100880.16;;;2.17;74.97
76762;BME280;65705;51.032;13.790;2022-12-20T04:24:03;100882.00;;;2.15;75.21
76762;BME280;65705;51.032;13.790;2022-12-20T04:26:45;100866.97;;;2.22;74.57
76762;BME280;65705;51.032;13.790;2022-12-20T04:29:12;100864.47;;;2.20;75.00
76762;BME280;65705;51.032;13.790;2022-12-20T04:31:39;100872.31;;;2.19;75.36
76762;BME280;65705;51.032;13.790;2022-12-20T04:34:05;100869.63;;;2.20;75.21
76762;BME280;65705;51.032;13.790;2022-12-20T04:36:32;100864.09;;;2.26;75.17
76762;BME280;65705;51.032;13.790;2022-12-20T04:39:01;100857.63;;;2.33;74.92
76762;BME280;65705;51.032;13.790;2022-12-20T04:41:32;100859.00;;;2.25;75.15
76762;BME280;65705;51.032;13.790;2022-12-20T04:44:05;100856.41;;;2.25;75.57
76762;BME280;65705;51.032;13.790;2022-12-20T04:46:34;100867.06;;;2.20;75.92
76762;BME280;65705;51.032;13.790;2022-12-20T04:49:01;100864.63;;;2.17;76.09
76762;BME280;65705;51.032;13.790;2022-12-20T04:51:29;100860.69;;;2.10;76.41
76762;BME280;65705;51.032;13.790;2022-12-20T04:53:55;100864.78;;;2.14;76.61
76762;BME280;65705;51.032;13.790;2022-12-20T04:56:28;100864.97;;;2.11;76.63
76762;BME280;65705;51.032;13.790;2022-12-20T04:59:00;100860.69;;;2.10;76.82
76762;BME280;65705;51.032;13.790;2022-12-20T05:01:27;100857.13;;;2.12;76.64
76762;BME280;65705;51.032;13.790;2022-12-20T05:03:53;100856.41;;;2.25;76.62
76762;BME280;65705;51.032;13.790;2022-12-20T05:06:19;100854.00;;;2.22;76.87
76762;BME280;65705;51.032;13.790;2022-12-20T05:08:46;100858.34;;;2.21;76.38
76762;BME280;65705;51.032;13.790;2022-12-20T05:11:12;100854.84;;;2.22;76.73
76762;BME280;65705;51.032;13.790;2022-12-20T05:13:38;100850.19;;;2.13;76.66
76762;BME280;65705;51.032;13.790;2022-12-20T05:16:06;100851.75;;;2.15;76.53
76762;BME280;65705;51.032;13.790;2022-12-20T05:18:33;100845.78;;;2.15;76.83
76762;BME280;65705;51.032;13.790;2022-12-20T05:21:03;100839.56;;;2.17;76.96
76762;BME280;65705;51.032;13.790;2022-12-20T05:23:49;100846.06;;;2.25;76.70
76762;BME280;65705;51.032;13.790;2022-12-20T05:26:59;100844.50;;;2.22;76.42
76762;BME280;65705;51.032;13.790;2022-12-20T05:29:25;100847.09;;;2.22;76.56
76762;BME280;65705;51.032;13.790;2022-12-20T05:31:51;100844.97;;;2.29;76.36
76762;BME280;65705;51.032;13.790;2022-12-20T05:34:17;100840.72;;;2.28;76.76
76762;BME280;65705;51.032;13.790;2022-12-20T05:36:48;100846.81;;;2.27;76.81
76762;BME280;65705;51.032;13.790;2022-12-20T05:39:14;100846.91;;;2.25;77.13
76762;BME280;65705;51.032;13.790;2022-12-20T05:41:41;100840.88;;;2.25;77.32
76762;BME280;65705;51.032;13.790;2022-12-20T05:44:08;100837.38;;;2.26;77.09
76762;BME280;65705;51.032;13.790;2022-12-20T05:46:37;100832.66;;;2.32;77.04
76762;BME280;65705;51.032;13.790;2022-12-20T05:49:08;100833.41;;;2.34;76.73
76762;BME280;65705;51.032;13.790;2022-12-20T05:51:33;100828.16;;;2.36;76.83
76762;BME280;65705;51.032;13.790;2022-12-20T05:54:15;100828.91;;;2.38;76.85
76762;BME280;65705;51.032;13.790;2022-12-20T05:56:50;100829.56;;;2.41;76.45
76762;BME280;65705;51.032;13.790;2022-12-20T05:59:20;100829.75;;;2.38;76.58
76762;BME280;65705;51.032;13.790;2022-12-20T06:01:46;100832.56;;;2.34;76.63
76762;BME280;65705;51.032;13.790;2022-12-20T06:04:12;100818.63;;;2.36;76.85
76762;BME280;65705;51.032;13.790;2022-12-20T06:06:39;100820.66;;;2.31;76.73
76762;BME280;65705;51.032;13.790;2022-12-20T06:09:06;100816.94;;;2.35;76.49
76762;BME280;65705;51.032;13.790;2022-12-20T06:11:39;100817.03;;;2.34;76.16
76762;BME280;65705;51.032;13.790;2022-12-20T06:14:10;100812.34;;;2.40;75.85
76762;BME280;65705;51.032;13.790;2022-12-20T06:16:41;100817.88;;;2.34;76.54
76762;BME280;65705;51.032;13.790;2022-12-20T06:19:08;100810.66;;;2.39;76.22
76762;BME280;65705;51.032;13.790;2022-12-20T06:21:35;100820.13;;;2.40;76.16
76762;BME280;65705;51.032;13.790;2022-12-20T06:24:01;100814.53;;;2.32;75.99
76762;BME280;65705;51.032;13.790;2022-12-20T06:26:28;100820.56;;;2.33;76.15
76762;BME280;65705;51.032;13.790;2022-12-20T06:29:05;100825.00;;;2.31;76.61
76762;BME280;65705;51.032;13.790;2022-12-20T06:31:42;100812.03;;;2.31;76.21
76762;BME280;65705;51.032;13.790;2022-12-20T06:34:08;100823.16;;;2.33;76.01
76762;BME280;65705;51.032;13.790;2022-12-20T06:36:38;100816.13;;;2.35;75.95
76762;BME280;65705;51.032;13.790;2022-12-20T06:39:07;100821.38;;;2.33;75.98
76762;BME280;65705;51.032;13.790;2022-12-20T06:41:35;100823.25;;;2.31;75.63
76762;BME280;65705;51.032;13.790;2022-12-20T06:44:02;100812.78;;;2.33;75.84
76762;BME280;65705;51.032;13.790;2022-12-20T06:46:28;100819.81;;;2.31;75.55
76762;BME280;65705;51.032;13.790;2022-12-20T06:48:55;100821.22;;;2.36;75.45
76762;BME280;65705;51.032;13.790;2022-12-20T06:51:21;100822.50;;;2.29;75.71
76762;BME280;65705;51.032;13.790;2022-12-20T06:53:47;100836.56;;;2.39;75.41
76762;BME280;65705;51.032;13.790;2022-12-20T06:56:13;100838.59;;;2.34;75.72
76762;BME280;65705;51.032;13.790;2022-12-20T06:58:38;100846.72;;;2.28;75.58
76762;BME280;65705;51.032;13.790;2022-12-20T07:01:04;100841.19;;;2.34;75.46
76762;BME280;65705;51.032;13.790;2022-12-20T07:03:30;100847.47;;;2.30;75.95
76762;BME280;65705;51.032;13.790;2022-12-20T07:05:56;100845.22;;;2.24;75.62
76762;BME280;65705;51.032;13.790;2022-12-20T07:08:22;100837.00;;;2.32;75.00
76762;BME280;65705;51.032;13.790;2022-12-20T07:10:48;100840.63;;;2.29;75.30
76762;BME280;65705;51.032;13.790;2022-12-20T07:13:15;100835.81;;;2.37;74.77
76762;BME280;65705;51.032;13.790;2022-12-20T07:15:40;100839.50;;;2.33;75.08
76762;BME280;65705;51.032;13.790;2022-12-20T07:18:06;100847.56;;;2.29;75.51
76762;BME280;65705;51.032;13.790;2022-12-20T07:20:32;100845.81;;;2.29;75.08
76762;BME280;65705;51.032;13.790;2022-12-20T07:22:57;100841.38;;;2.31;75.18
76762;BME280;65705;51.032;13.790;2022-12-20T07:25:23;100840.84;;;2.40;74.83
76762;BME280;65705;51.032;13.790;2022-12-20T07:27:50;100829.16;;;2.33;74.93
76762;BME280;65705;51.032;13.790;2022-12-20T07:30:17;100820.28;;;2.37;74.54
76762;BME280;65705;51.032;13.790;2022-12-20T07:32:44;100819.63;;;2.34;74.70
76762;BME280;65705;51.032;13.790;2022-12-20T07:35:10;100804.50;;;2.42;74.25
76762;BME280;65705;51.032;13.790;2022-12-20T07:37:36;100811.78;;;2.49;73.88
76762;BME280;65705;51.032;13.790;2022-12-20T07:40:03;100813.19;;;2.55;73.34
76762;BME280;65705;51.032;13.790;2022-12-20T07:42:29;100808.00;;;2.55;73.18
76762;BME280;65705;51.032;13.790;2022-12-20T07:44:54;100806.72;;;2.62;72.83
76762;BME280;65705;51.032;13.790;2022-12-20T07:47:21;100817.25;;;2.59;73.06
76762;BME280;65705;51.032;13.790;2022-12-20T07:49:47;100811.19;;;2.60;73.01
76762;BME280;65705;51.032;13.790;2022-12-20T07:52:15;100815.31;;;2.62;72.86
76762;BME280;65705;51.032;13.790;2022-12-20T07:54:50;100822.34;;;2.60;72.74
76762;BME280;65705;51.032;13.790;2022-12-20T07:57:28;100825.03;;;2.59;72.98
76762;BME280;65705;51.032;13.790;2022-12-20T07:59:58;100826.19;;;2.69;72.33
76762;BME280;65705;51.032;13.790;2022-12-20T08:02:31;100835.16;;;2.77;72.16
76762;BME280;65705;51.032;13.790;2022-12-20T08:04:58;100822.28;;;2.76;72.05
76762;BME280;65705;51.032;13.790;2022-12-20T08:07:26;100818.31;;;2.70;71.98
76762;BME280;65705;51.032;13.790;2022-12-20T08:09:53;100839.94;;;2.69;71.91
76762;BME280;65705;51.032;13.790;2022-12-20T08:12:19;100845.03;;;2.71;71.93
76762;BME280;65705;51.032;13.790;2022-12-20T08:14:46;100842.81;;;2.79;71.95
76762;BME280;65705;51.032;13.790;2022-12-20T08:17:12;100842.63;;;2.68;71.67
76762;BME280;65705;51.032;13.790;2022-12-20T08:19:37;100838.00;;;2.73;71.97
76762;BME280;65705;51.032;13.790;2022-12-20T08:22:04;100845.88;;;2.71;71.69
76762;BME280;65705;51.032;13.790;2022-12-20T08:24:32;100840.44;;;2.76;71.45
76762;BME280;65705;51.032;13.790;2022-12-20T08:26:58;100821.44;;;2.75;71.03
76762;BME280;65705;51.032;13.790;2022-12-20T08:29:24;100828.94;;;2.80;71.22
76762;BME280;65705;51.032;13.790;2022-12-20T08:31:50;100826.28;;;2.81;70.96
76762;BME280;65705;51.032;13.790;2022-12-20T08:34:17;100817.09;;;2.76;71.19
76762;BME280;65705;51.032;13.790;2022-12-20T08:36:43;100828.94;;;2.80;71.06
76762;BME280;65705;51.032;13.790;2022-12-20T08:39:08;100836.25;;;2.87;70.80
76762;BME280;65705;51.032;13.790;2022-12-20T08:41:36;100826.06;;;2.84;70.48
76762;BME280;65705;51.032;13.790;2022-12-20T08:44:03;100829.97;;;2.77;70.84
76762;BME280;65705;51.032;13.790;2022-12-20T08:46:29;100844.22;;;2.84;70.50
76762;BME280;65705;51.032;13.790;2022-12-20T08:48:54;100840.22;;;2.65;71.51
76762;BME280;65705;51.032;13.790;2022-12-20T08:51:20;100834.75;;;2.69;71.23
76762;BME280;65705;51.032;13.790;2022-12-20T08:53:46;100819.50;;;2.65;71.38
76762;BME280;65705;51.032;13.790;2022-12-20T08:56:13;100821.81;;;2.69;71.06
76762;BME280;65705;51.032;13.790;2022-12-20T08:58:40;100824.78;;;2.63;71.12
76762;BME280;65705;51.032;13.790;2022-12-20T09:01:11;100826.06;;;2.56;71.10
76762;BME280;65705;51.032;13.790;2022-12-20T09:03:38;100834.09;;;2.66;70.96
76762;BME280;65705;51.032;13.790;2022-12-20T09:06:12;100815.16;;;2.65;70.76
76762;BME280;65705;51.032;13.790;2022-12-20T09:08:39;100833.28;;;2.65;70.63
76762;BME280;65705;51.032;13.790;2022-12-20T09:11:16;100829.41;;;2.72;70.90
76762;BME280;65705;51.032;13.790;2022-12-20T09:13:44;100831.81;;;2.75;70.48
76762;BME280;65705;51.032;13.790;2022-12-20T09:16:13;100831.72;;;2.77;70.42
76762;BME280;65705;51.032;13.790;2022-12-20T09:18:39;100831.34;;;2.83;70.47
76762;BME280;65705;51.032;13.790;2022-12-20T09:21:05;100837.00;;;2.89;70.15
76762;BME280;65705;51.032;13.790;2022-12-20T09:23:33;100842.09;;;2.91;70.05
76762;BME280;65705;51.032;13.790;2022-12-20T09:26:04;100850.50;;;2.94;70.30
76762;BME280;65705;51.032;13.790;2022-12-20T09:28:31;100858.47;;;3.05;69.69
76762;BME280;65705;51.032;13.790;2022-12-20T09:30:58;100847.53;;;3.14;69.52
76762;BME280;65705;51.032;13.790;2022-12-20T09:33:23;100840.31;;;3.19;69.15
76762;BME280;65705;51.032;13.790;2022-12-20T09:35:49;100841.78;;;3.23;69.52
76762;BME280;65705;51.032;13.790;2022-12-20T09:38:15;100840.69;;;3.28;68.99
76762;BME280;65705;51.032;13.790;2022-12-20T09:40:46;100843.44;;;3.39;68.90
76762;BME280;65705;51.032;13.790;2022-12-20T09:43:15;100844.47;;;3.36;68.43
76762;BME280;65705;51.032;13.790;2022-12-20T09:45:41;100852.16;;;3.38;68.91
76762;BME280;65705;51.032;13.790;2022-12-20T09:48:17;100837.22;;;3.41;68.56
76762;BME280;65705;51.032;13.790;2022-12-20T09:56:31;100852.28;;;3.63;67.74
76762;BME280;65705;51.032;13.790;2022-12-20T09:59:04;100852.72;;;3.69;67.77
76762;BME280;65705;51.032;13.790;2022-12-20T10:01:32;100846.72;;;3.69;67.55
76762;BME280;65705;51.032;13.790;2022-12-20T10:04:03;100841.22;;;3.73;67.56
76762;BME280;65705;51.032;13.790;2022-12-20T10:09:29;100853.91;;;3.78;67.34
76762;BME280;65705;51.032;13.790;2022-12-20T10:15:11;100867.63;;;3.80;67.40
76762;BME280;65705;51.032;13.790;2022-12-20T10:23:08;100848.41;;;3.82;66.88
76762;BME280;65705;51.032;13.790;2022-12-20T10:25:38;100840.56;;;3.70;67.45
76762;BME280;65705;51.032;13.790;2022-12-20T10:28:11;100828.44;;;3.70;67.62
76762;BME280;65705;51.032;13.790;2022-12-20T10:30:37;100836.16;;;3.58;68.25
76762;BME280;65705;51.032;13.790;2022-12-20T10:33:03;100829.50;;;3.54;68.18
76762;BME280;65705;51.032;13.790;2022-12-20T10:35:39;100836.38;;;3.55;68.24
76762;BME280;65705;51.032;13.790;2022-12-20T10:38:07;100846.75;;;3.55;68.21
76762;BME280;65705;51.032;13.790;2022-12-20T10:40:42;100836.50;;;3.66;67.96
76762;BME280;65705;51.032;13.790;2022-12-20T10:43:20;100838.66;;;3.59;67.96
76762;BME280;65705;51.032;13.790;2022-12-20T10:46:05;100837.19;;;3.55;68.43
76762;BME280;65705;51.032;13.790;2022-12-20T10:48:36;100833.31;;;3.48;68.65
76762;BME280;65705;51.032;13.790;2022-12-20T10:51:17;100818.97;;;3.43;68.77
76762;BME280;65705;51.032;13.790;2022-12-20T10:54:00;100802.28;;;3.47;68.83
76762;BME280;65705;51.032;13.790;2022-12-20T10:56:33;100808.59;;;3.43;68.57
76762;BME280;65705;51.032;13.790;2022-12-20T10:59:20;100797.84;;;3.49;68.66
76762;BME280;65705;51.032;13.790;2022-12-20T11:01:48;100803.03;;;3.49;68.67
76762;BME280;65705;51.032;13.790;2022-12-20T11:04:26;100797.09;;;3.47;68.41
76762;BME280;65705;51.032;13.790;2022-12-20T11:06:53;100798.03;;;3.46;68.83
76762;BME280;65705;51.032;13.790;2022-12-20T11:09:33;100799.41;;;3.51;68.77
76762;BME280;65705;51.032;13.790;2022-12-20T11:12:12;100782.06;;;3.52;68.69
76762;BME280;65705;51.032;13.790;2022-12-20T11:14:40;100780.19;;;3.54;68.53
76762;BME280;65705;51.032;13.790;2022-12-20T11:17:36;100766.59;;;3.50;68.80
76762;BME280;65705;51.032;13.790;2022-12-20T11:31:09;100753.66;;;3.63;68.05
76762;BME280;65705;51.032;13.790;2022-12-20T11:33:53;100750.56;;;3.70;68.08
76762;BME280;65705;51.032;13.790;2022-12-20T11:41:43;100725.84;;;3.65;67.90
76762;BME280;65705;51.032;13.790;2022-12-20T11:55:30;100713.19;;;3.60;68.02
76762;BME280;65705;51.032;13.790;2022-12-20T11:57:27;100715.47;;;3.65;67.85
76762;BME280;65705;51.032;13.790;2022-12-20T12:00:00;100730.66;;;3.71;68.01
76762;BME280;65705;51.032;13.790;2022-12-20T12:03:40;100723.19;;;3.79;67.59
76762;BME280;65705;51.032;13.790;2022-12-20T12:06:03;100724.66;;;3.83;67.59
76762;BME280;65705;51.032;13.790;2022-12-20T12:11:23;100729.31;;;3.78;67.29
76762;BME280;65705;51.032;13.790;2022-12-20T12:13:52;100728.16;;;3.82;67.48
76762;BME280;65705;51.032;13.790;2022-12-20T12:18:49;100706.47;;;3.83;67.02
76762;BME280;65705;51.032;13.790;2022-12-20T12:21:22;100687.69;;;3.79;67.27
76762;BME280;65705;51.032;13.790;2022-12-20T12:26:29;100692.50;;;3.59;67.88
76762;BME280;65705;51.032;13.790;2022-12-20T12:28:57;100685.88;;;3.55;67.98
76762;BME280;65705;51.032;13.790;2022-12-20T12:45:06;100661.94;;;3.37;68.79
76762;BME280;65705;51.032;13.790;2022-12-20T12:47:51;100667.66;;;3.30;69.11
76762;BME280;65705;51.032;13.790;2022-12-20T12:50:31;100667.53;;;3.31;68.45
76762;BME280;65705;51.032;13.790;2022-12-20T12:53:05;100666.41;;;3.35;68.58
76762;BME280;65705;51.032;13.790;2022-12-20T13:00:55;100640.97;;;3.28;69.41
76762;BME280;65705;51.032;13.790;2022-12-20T13:16:36;100643.03;;;3.22;69.06
76762;BME280;65705;51.032;13.790;2022-12-20T13:19:14;100638.66;;;3.23;68.98
76762;BME280;65705;51.032;13.790;2022-12-20T13:21:45;100626.13;;;3.17;69.69
76762;BME280;65705;51.032;13.790;2022-12-20T13:26:54;100613.19;;;3.30;69.25
76762;BME280;65705;51.032;13.790;2022-12-20T13:29:23;100602.06;;;3.28;69.46
76762;BME280;65705;51.032;13.790;2022-12-20T13:31:50;100586.28;;;3.31;69.27
76762;BME280;65705;51.032;13.790;2022-12-20T13:37:01;100590.44;;;3.20;69.20
76762;BME280;65705;51.032;13.790;2022-12-20T13:42:12;100580.66;;;3.11;70.12
76762;BME280;65705;51.032;13.790;2022-12-20T13:44:42;100582.53;;;3.09;69.63
76762;BME280;65705;51.032;13.790;2022-12-20T13:49:59;100582.53;;;3.09;70.06
76762;BME280;65705;51.032;13.790;2022-12-20T13:52:39;100575.66;;;3.08;69.56
76762;BME280;65705;51.032;13.790;2022-12-20T13:55:16;100563.75;;;3.06;69.93
76762;BME280;65705;51.032;13.790;2022-12-20T13:57:47;100562.91;;;3.05;69.71
76762;BME280;65705;51.032;13.790;2022-12-20T14:00:17;100572.38;;;3.06;69.76
76762;BME280;65705;51.032;13.790;2022-12-20T14:02:43;100564.75;;;3.03;70.05
76762;BME280;65705;51.032;13.790;2022-12-20T14:07:47;100566.97;;;3.09;69.91
76762;BME280;65705;51.032;13.790;2022-12-20T14:10:23;100565.91;;;3.12;69.48
76762;BME280;65705;51.032;13.790;2022-12-20T14:12:50;100555.13;;;3.05;69.80
76762;BME280;65705;51.032;13.790;2022-12-20T14:15:25;100558.09;;;2.99;69.88
76762;BME280;65705;51.032;13.790;2022-12-20T14:17:51;100563.59;;;2.95;70.00
76762;BME280;65705;51.032;13.790;2022-12-20T14:20:28;100553.56;;;2.90;70.29
76762;BME280;65705;51.032;13.790;2022-12-20T14:23:09;100554.47;;;2.89;70.35
76762;BME280;65705;51.032;13.790;2022-12-20T14:25:55;100553.22;;;2.95;70.04
76762;BME280;65705;51.032;13.790;2022-12-20T14:31:28;100543.38;;;3.00;70.41
76762;BME280;65705;51.032;13.790;2022-12-20T14:37:23;100533.94;;;2.86;70.61
76762;BME280;65705;51.032;13.790;2022-12-20T14:40:15;100534.84;;;2.85;70.84
76762;BME280;65705;51.032;13.790;2022-12-20T14:42:42;100534.84;;;2.85;70.55
76762;BME280;65705;51.032;13.790;2022-12-20T14:47:36;100528.75;;;2.86;70.47
76762;BME280;65705;51.032;13.790;2022-12-20T14:50:06;100516.81;;;2.84;70.39
76762;BME280;65705;51.032;13.790;2022-12-20T14:52:41;100525.44;;;2.84;70.53
76762;BME280;65705;51.032;13.790;2022-12-20T14:55:15;100518.28;;;2.88;70.45
76762;BME280;65705;51.032;13.790;2022-12-20T14:57:45;100508.19;;;2.83;70.60
76762;BME280;65705;51.032;13.790;2022-12-20T15:00:21;100497.41;;;2.77;70.80
76762;BME280;65705;51.032;13.790;2022-12-20T15:02:51;100500.38;;;2.71;71.17